createdAt,value
2019-05-29T00:00:22.987Z,101636.11
2019-05-29T00:01:24.672Z,101636.55
2019-05-29T00:02:25.345Z,101637.44
2019-05-29T00:03:24.491Z,101638.51
2019-05-29T00:04:26.404Z,101639.53
2019-05-29T00:05:27.008Z,101640.34
2019-05-29T00:06:27.769Z,101641.49
2019-05-29T00:07:28.486Z,101642.64
2019-05-29T00:08:28.153Z,101643.80
2019-05-29T00:09:29.218Z,101644.98
2019-05-29T00:10:29.807Z,101646.67
2019-05-29T00:11:30.644Z,101648.20
2019-05-29T00:12:30.017Z,101649.30
2019-05-29T00:13:30.779Z,101650.99
2019-05-29T00:14:31.800Z,101652.52
2019-05-29T00:15:32.225Z,101653.95
2019-05-29T00:16:32.570Z,101655.06
2019-05-29T00:17:33.106Z,101655.73
2019-05-29T00:18:33.807Z,101657.27
2019-05-29T00:19:34.152Z,101658.11
2019-05-29T00:20:34.617Z,101659.04
2019-05-29T00:21:35.394Z,101659.97
2019-05-29T00:22:35.882Z,101660.91
2019-05-29T00:23:36.119Z,101661.88
2019-05-29T00:24:36.614Z,101662.81
2019-05-29T00:25:36.523Z,101663.63
2019-05-29T00:26:36.678Z,101664.64
2019-05-29T00:26:48.934Z,101689.23
2019-05-29T00:27:48.158Z,101691.33
2019-05-29T00:28:49.159Z,101690.41
2019-05-29T00:29:49.535Z,101690.23
2019-05-29T00:30:49.920Z,101689.17
2019-05-29T00:31:50.978Z,101688.75
2019-05-29T00:32:51.343Z,101688.41
2019-05-29T00:33:53.163Z,101688.02
2019-05-29T00:34:52.355Z,101688.02
2019-05-29T00:35:53.030Z,101687.26
2019-05-29T00:36:53.691Z,101687.17
2019-05-29T00:37:53.953Z,101686.75
2019-05-29T00:38:54.369Z,101686.92
2019-05-29T00:39:54.811Z,101686.75
2019-05-29T00:40:55.278Z,101687.00
2019-05-29T00:41:55.766Z,101687.30
2019-05-29T00:42:56.429Z,101687.73
2019-05-29T00:43:57.205Z,101687.90
2019-05-29T00:44:57.518Z,101688.06
2019-05-29T00:45:57.848Z,101688.45
2019-05-29T00:46:58.314Z,101688.45
2019-05-29T00:47:59.168Z,101688.88
2019-05-29T00:48:59.735Z,101689.25
2019-05-29T00:50:00.058Z,101689.59
2019-05-29T00:51:01.463Z,101689.80
2019-05-29T00:52:02.219Z,101689.92
2019-05-29T00:53:01.239Z,101690.00
2019-05-29T00:54:01.356Z,101690.47
2019-05-29T00:55:01.846Z,101691.17
2019-05-29T00:56:03.146Z,101691.55
2019-05-29T00:57:02.780Z,101692.09
2019-05-29T00:58:03.134Z,101692.72
2019-05-29T00:59:03.696Z,101692.92
2019-05-29T01:00:04.706Z,101693.64
2019-05-29T01:01:04.862Z,101693.67
2019-05-29T01:02:05.487Z,101694.22
2019-05-29T01:03:06.178Z,101694.59
2019-05-29T01:04:06.650Z,101695.22
2019-05-29T01:05:07.067Z,101695.09
2019-05-29T01:06:07.717Z,101695.88
2019-05-29T01:07:08.106Z,101696.26
2019-05-29T01:08:08.550Z,101696.46
2019-05-29T01:09:08.732Z,101696.58
2019-05-29T01:10:10.606Z,101697.16
2019-05-29T01:11:10.629Z,101697.95
2019-05-29T01:12:10.842Z,101698.36
2019-05-29T01:13:11.099Z,101698.99
2019-05-29T01:14:11.266Z,101699.45
2019-05-29T01:15:13.336Z,101700.03
2019-05-29T01:16:12.055Z,101700.44
2019-05-29T01:17:13.771Z,101701.22
2019-05-29T01:18:13.782Z,101702.00
2019-05-29T01:19:13.904Z,101702.83
2019-05-29T01:20:14.086Z,101703.48
2019-05-29T01:21:14.581Z,101704.23
2019-05-29T01:22:16.171Z,101705.32
2019-05-29T01:23:16.258Z,101705.86
2019-05-29T01:24:16.293Z,101706.91
2019-05-29T01:25:16.566Z,101707.79
2019-05-29T01:26:16.838Z,101708.25
2019-05-29T01:27:18.801Z,101709.52
2019-05-29T01:28:17.290Z,101710.14
2019-05-29T01:29:19.455Z,101710.91
2019-05-29T01:30:19.355Z,101711.87
2019-05-29T01:31:19.374Z,101712.89
2019-05-29T01:32:19.530Z,101713.95
2019-05-29T01:33:20.478Z,101714.63
2019-05-29T01:34:19.859Z,101715.73
2019-05-29T01:35:20.159Z,101716.74
2019-05-29T01:36:20.363Z,101717.59
2019-05-29T01:37:22.290Z,101718.02
2019-05-29T01:38:21.578Z,101718.69
2019-05-29T01:39:21.595Z,101719.80
2019-05-29T01:40:27.448Z,101720.55
2019-05-29T01:41:23.543Z,101720.98
2019-05-29T01:42:23.495Z,101721.70
2019-05-29T01:43:23.593Z,101722.30
2019-05-29T01:44:23.914Z,101722.81
2019-05-29T01:45:23.921Z,101723.57
2019-05-29T01:46:25.424Z,101723.82
2019-05-29T01:47:25.845Z,101724.72
2019-05-29T01:48:26.253Z,101725.28
2019-05-29T01:49:28.049Z,101725.95
2019-05-29T01:50:26.213Z,101726.38
2019-05-29T01:51:28.042Z,101727.53
2019-05-29T01:52:28.070Z,101728.46
2019-05-29T01:53:27.961Z,101729.22
2019-05-29T01:54:28.054Z,101729.73
2019-05-29T01:55:28.288Z,101730.45
2019-05-29T01:56:29.672Z,101731.64
2019-05-29T01:57:30.378Z,101733.14
2019-05-29T01:58:30.690Z,101733.98
2019-05-29T01:59:31.039Z,101734.54
2019-05-29T02:00:31.480Z,101735.02
2019-05-29T02:01:31.977Z,101735.86
2019-05-29T02:02:32.313Z,101736.50
2019-05-29T02:03:32.797Z,101737.09
2019-05-29T02:04:33.262Z,101738.20
2019-05-29T02:05:33.764Z,101739.38
2019-05-29T02:06:34.227Z,101740.65
2019-05-29T02:06:42.747Z,101757.61
2019-05-29T02:07:44.159Z,101761.61
2019-05-29T02:08:44.519Z,101761.02
2019-05-29T02:09:44.912Z,101761.33
2019-05-29T02:10:45.387Z,101761.63
2019-05-29T02:11:45.795Z,101762.14
2019-05-29T02:12:46.391Z,101762.61
2019-05-29T02:13:46.736Z,101763.20
2019-05-29T02:14:47.179Z,101764.30
2019-05-29T02:15:47.668Z,101765.66
2019-05-29T02:16:48.070Z,101766.34
2019-05-29T02:17:48.521Z,101767.52
2019-05-29T02:18:48.787Z,101768.20
2019-05-29T02:19:49.177Z,101768.53
2019-05-29T02:20:49.537Z,101769.41
2019-05-29T02:21:49.930Z,101770.09
2019-05-29T02:22:50.276Z,101770.64
2019-05-29T02:23:50.638Z,101771.56
2019-05-29T02:24:51.004Z,101772.61
2019-05-29T02:25:51.526Z,101773.41
2019-05-29T02:26:51.866Z,101774.29
2019-05-29T02:27:52.216Z,101774.97
2019-05-29T02:28:52.512Z,101776.02
2019-05-29T02:29:52.987Z,101776.35
2019-05-29T02:30:53.415Z,101777.41
2019-05-29T02:31:53.765Z,101778.20
2019-05-29T02:32:54.159Z,101779.30
2019-05-29T02:33:54.523Z,101780.20
2019-05-29T02:34:54.903Z,101780.58
2019-05-29T02:35:55.285Z,101781.17
2019-05-29T02:36:55.566Z,101782.16
2019-05-29T02:37:56.114Z,101782.87
2019-05-29T02:38:56.451Z,101783.92
2019-05-29T02:39:57.254Z,101785.23
2019-05-29T02:40:57.683Z,101786.22
2019-05-29T02:41:58.214Z,101786.93
2019-05-29T02:42:58.591Z,101787.69
2019-05-29T02:43:59.019Z,101788.15
2019-05-29T02:44:59.502Z,101788.61
2019-05-29T02:45:59.854Z,101789.23
2019-05-29T02:47:00.453Z,101789.91
2019-05-29T02:48:00.814Z,101790.19
2019-05-29T02:49:01.257Z,101790.98
2019-05-29T02:50:01.646Z,101792.11
2019-05-29T02:50:10.199Z,101807.43
2019-05-29T02:51:12.251Z,101803.30
2019-05-29T02:52:10.934Z,101803.21
2019-05-29T02:53:12.390Z,101803.30
2019-05-29T02:54:12.843Z,101804.48
2019-05-29T02:55:13.255Z,101804.70
2019-05-29T02:56:13.641Z,101805.12
2019-05-29T02:57:13.982Z,101805.89
2019-05-29T02:58:14.304Z,101807.30
2019-05-29T02:59:14.810Z,101808.90
2019-05-29T03:00:15.225Z,101809.41
2019-05-29T03:01:15.795Z,101810.25
2019-05-29T03:02:16.621Z,101811.13
2019-05-29T03:03:17.353Z,101811.92
2019-05-29T03:04:17.738Z,101813.11
2019-05-29T03:05:18.149Z,101814.23
2019-05-29T03:06:18.926Z,101815.28
2019-05-29T03:07:19.688Z,101816.33
2019-05-29T03:08:20.043Z,101817.38
2019-05-29T03:09:22.563Z,101818.34
2019-05-29T03:10:20.066Z,101819.50
2019-05-29T03:11:23.063Z,101820.37
2019-05-29T03:12:20.843Z,101821.67
2019-05-29T03:13:23.119Z,101822.64
2019-05-29T03:14:22.919Z,101824.02
2019-05-29T03:15:23.559Z,101825.41
2019-05-29T03:16:23.912Z,101827.47
2019-05-29T03:17:23.678Z,101828.56
2019-05-29T03:18:24.025Z,101830.20
2019-05-29T03:19:24.028Z,101831.92
2019-05-29T03:20:25.959Z,101833.45
2019-05-29T03:21:26.060Z,101834.75
2019-05-29T03:22:26.248Z,101836.19
2019-05-29T03:23:28.935Z,101837.54
2019-05-29T03:24:27.084Z,101839.23
2019-05-29T03:25:28.289Z,101840.41
2019-05-29T03:26:30.313Z,101841.59
2019-05-29T03:27:27.920Z,101843.13
2019-05-29T03:28:32.156Z,101844.81
2019-05-29T03:29:29.989Z,101846.45
2019-05-29T03:30:31.651Z,101848.17
2019-05-29T03:31:36.862Z,101850.20
2019-05-29T03:32:32.475Z,101851.92
2019-05-29T03:33:39.256Z,101853.22
2019-05-29T03:34:37.309Z,101855.54
2019-05-29T03:35:39.858Z,101857.39
2019-05-29T03:36:41.557Z,101858.78
2019-05-29T03:37:32.550Z,101860.67
2019-05-29T03:38:34.621Z,101862.02
2019-05-29T03:39:34.592Z,101864.00
2019-05-29T03:40:35.113Z,101865.47
2019-05-29T03:41:34.898Z,101867.78
2019-05-29T03:42:34.539Z,101869.33
2019-05-29T03:43:35.963Z,101870.71
2019-05-29T03:44:35.618Z,101872.34
2019-05-29T03:45:37.861Z,101874.16
2019-05-29T03:46:42.780Z,101875.88
2019-05-29T03:47:37.206Z,101878.08
2019-05-29T03:48:38.555Z,101879.62
2019-05-29T03:49:37.625Z,101880.98
2019-05-29T03:50:38.973Z,101882.28
2019-05-29T03:51:39.514Z,101884.39
2019-05-29T03:52:40.011Z,101886.20
2019-05-29T03:53:40.372Z,101887.41
2019-05-29T03:54:40.975Z,101888.79
2019-05-29T03:55:41.520Z,101890.09
2019-05-29T03:56:42.004Z,101891.21
2019-05-29T03:57:42.391Z,101892.84
2019-05-29T03:58:42.843Z,101894.31
2019-05-29T03:59:43.361Z,101895.61
2019-05-29T04:00:46.653Z,101896.73
2019-05-29T04:01:43.531Z,101898.26
2019-05-29T04:02:45.326Z,101899.22
2019-05-29T04:03:45.879Z,101900.80
2019-05-29T04:03:55.431Z,101924.96
2019-05-29T04:04:57.002Z,101923.30
2019-05-29T04:05:57.954Z,101923.22
2019-05-29T04:06:58.532Z,101923.47
2019-05-29T04:07:59.121Z,101923.05
2019-05-29T04:08:59.713Z,101923.53
2019-05-29T04:10:00.169Z,101923.75
2019-05-29T04:11:00.919Z,101923.73
2019-05-29T04:12:01.350Z,101924.27
2019-05-29T04:13:01.800Z,101925.08
2019-05-29T04:14:01.210Z,101925.20
2019-05-29T04:15:02.830Z,101925.42
2019-05-29T04:16:03.226Z,101925.70
2019-05-29T04:17:03.848Z,101926.10
2019-05-29T04:18:04.234Z,101926.25
2019-05-29T04:19:04.627Z,101926.47
2019-05-29T04:20:05.017Z,101926.67
2019-05-29T04:21:05.834Z,101926.89
2019-05-29T04:22:06.320Z,101926.75
2019-05-29T04:23:06.717Z,101927.23
2019-05-29T04:24:07.331Z,101928.05
2019-05-29T04:25:07.925Z,101928.02
2019-05-29T04:26:08.613Z,101928.42
2019-05-29T04:27:08.912Z,101929.04
2019-05-29T04:28:09.323Z,101930.11
2019-05-29T04:29:09.742Z,101930.84
2019-05-29T04:30:10.171Z,101931.97
2019-05-29T04:31:10.715Z,101933.02
2019-05-29T04:32:11.085Z,101933.50
2019-05-29T04:33:11.539Z,101933.81
2019-05-29T04:34:11.976Z,101935.19
2019-05-29T04:35:12.447Z,101935.89
2019-05-29T04:36:13.064Z,101937.72
2019-05-29T04:37:13.495Z,101938.85
2019-05-29T04:38:13.952Z,101939.64
2019-05-29T04:39:14.546Z,101941.13
2019-05-29T04:40:14.962Z,101942.27
2019-05-29T04:41:15.546Z,101943.76
2019-05-29T04:42:15.898Z,101944.71
2019-05-29T04:43:16.298Z,101945.61
2019-05-29T04:44:16.745Z,101945.98
2019-05-29T04:45:17.464Z,101946.97
2019-05-29T04:46:17.908Z,101947.84
2019-05-29T04:47:18.300Z,101948.29
2019-05-29T04:47:31.022Z,101963.16
2019-05-29T04:48:31.558Z,101962.54
2019-05-29T04:49:31.964Z,101962.54
2019-05-29T04:50:33.377Z,101962.80
2019-05-29T04:51:33.096Z,101963.44
2019-05-29T04:52:33.869Z,101963.78
2019-05-29T04:53:33.695Z,101963.50
2019-05-29T04:54:35.271Z,101963.80
2019-05-29T04:55:34.824Z,101964.20
2019-05-29T04:56:34.887Z,101964.88
2019-05-29T04:57:35.129Z,101965.69
2019-05-29T04:58:37.031Z,101966.51
2019-05-29T04:59:37.119Z,101967.33
2019-05-29T05:00:37.247Z,101968.66
2019-05-29T05:01:37.118Z,101969.66
2019-05-29T05:02:37.320Z,101970.95
2019-05-29T05:03:37.714Z,101971.83
2019-05-29T05:04:39.455Z,101973.91
2019-05-29T05:05:39.545Z,101975.14
2019-05-29T05:06:39.491Z,101976.15
2019-05-29T05:07:39.731Z,101977.77
2019-05-29T05:08:40.282Z,101978.59
2019-05-29T05:09:40.620Z,101979.89
2019-05-29T05:10:42.064Z,101980.87
2019-05-29T05:11:42.483Z,101981.81
2019-05-29T05:12:43.061Z,101983.19
2019-05-29T05:13:42.469Z,101983.86
2019-05-29T05:14:43.948Z,101984.19
2019-05-29T05:15:44.287Z,101985.19
2019-05-29T05:16:44.857Z,101986.15
2019-05-29T05:17:44.284Z,101986.89
2019-05-29T05:18:45.850Z,101987.23
2019-05-29T05:19:46.279Z,101987.98
2019-05-29T05:20:46.684Z,101988.59
2019-05-29T05:21:47.132Z,101989.55
2019-05-29T05:22:48.573Z,101989.91
2019-05-29T05:23:48.337Z,101990.67
2019-05-29T05:24:48.742Z,101991.69
2019-05-29T05:25:49.284Z,101992.87
2019-05-29T05:26:49.897Z,101993.55
2019-05-29T05:27:49.952Z,101994.36
2019-05-29T05:28:50.530Z,101995.42
2019-05-29T05:29:49.823Z,101996.72
2019-05-29T05:30:51.240Z,101997.89
2019-05-29T05:31:51.751Z,101998.72
2019-05-29T05:32:52.141Z,101999.58
2019-05-29T05:33:52.597Z,102001.11
2019-05-29T05:34:53.105Z,102002.20
2019-05-29T05:35:53.434Z,102003.22
2019-05-29T05:36:54.145Z,102004.07
2019-05-29T05:37:54.523Z,102004.44
2019-05-29T05:38:55.106Z,102004.80
2019-05-29T05:39:55.480Z,102005.44
2019-05-29T05:40:55.809Z,102006.07
2019-05-29T05:41:56.238Z,102007.44
2019-05-29T05:42:56.644Z,102007.69
2019-05-29T05:43:57.033Z,102008.48
2019-05-29T05:44:57.443Z,102009.30
2019-05-29T05:45:58.093Z,102010.23
2019-05-29T05:46:59.023Z,102010.48
2019-05-29T05:47:59.697Z,102011.26
2019-05-29T05:49:00.391Z,102012.06
2019-05-29T05:50:00.856Z,102012.66
2019-05-29T05:50:09.401Z,102029.97
2019-05-29T05:51:10.747Z,102029.47
2019-05-29T05:52:11.541Z,102029.57
2019-05-29T05:53:12.245Z,102029.87
2019-05-29T05:54:12.693Z,102029.74
2019-05-29T05:55:13.462Z,102029.67
2019-05-29T05:56:13.941Z,102029.80
2019-05-29T05:57:14.514Z,102030.27
2019-05-29T05:58:14.895Z,102030.16
2019-05-29T05:59:15.373Z,102030.83
2019-05-29T06:00:15.710Z,102030.81
2019-05-29T06:01:16.206Z,102031.08
2019-05-29T06:02:16.711Z,102030.91
2019-05-29T06:03:17.142Z,102031.09
2019-05-29T06:04:17.721Z,102030.94
2019-05-29T06:05:18.153Z,102031.51
2019-05-29T06:06:18.718Z,102032.41
2019-05-29T06:07:19.657Z,102032.89
2019-05-29T06:08:20.409Z,102033.37
2019-05-29T06:09:20.893Z,102033.59
2019-05-29T06:10:20.460Z,102033.95
2019-05-29T06:11:21.640Z,102034.48
2019-05-29T06:12:22.137Z,102034.91
2019-05-29T06:13:22.595Z,102035.12
2019-05-29T06:14:23.497Z,102035.92
2019-05-29T06:15:24.006Z,102036.11
2019-05-29T06:16:24.495Z,102036.94
2019-05-29T06:17:23.463Z,102037.63
2019-05-29T06:18:25.072Z,102037.92
2019-05-29T06:19:25.822Z,102038.16
2019-05-29T06:20:25.314Z,102038.60
2019-05-29T06:21:27.218Z,102039.09
2019-05-29T06:22:27.847Z,102039.19
2019-05-29T06:23:28.416Z,102039.80
2019-05-29T06:24:28.873Z,102039.83
2019-05-29T06:25:29.303Z,102040.15
2019-05-29T06:26:29.922Z,102041.55
2019-05-29T06:27:30.589Z,102041.66
2019-05-29T06:28:31.473Z,102042.24
2019-05-29T06:29:33.438Z,102043.16
2019-05-29T06:30:31.501Z,102043.55
2019-05-29T06:31:33.310Z,102044.34
2019-05-29T06:32:33.477Z,102044.42
2019-05-29T06:33:33.411Z,102044.70
2019-05-29T06:34:33.601Z,102045.33
2019-05-29T06:35:35.852Z,102046.23
2019-05-29T06:36:35.494Z,102046.70
2019-05-29T06:37:35.577Z,102047.41
2019-05-29T06:38:35.655Z,102047.48
2019-05-29T06:39:35.810Z,102048.25
2019-05-29T06:40:38.288Z,102049.22
2019-05-29T06:41:37.774Z,102049.84
2019-05-29T06:42:37.851Z,102050.53
2019-05-29T06:43:37.908Z,102050.75
2019-05-29T06:44:39.844Z,102051.22
2019-05-29T06:45:39.843Z,102051.44
2019-05-29T06:46:40.427Z,102051.63
2019-05-29T06:47:40.828Z,102051.52
2019-05-29T06:48:52.670Z,102052.18
2019-05-29T06:48:59.356Z,102058.63
2019-05-29T06:49:49.347Z,102058.63
2019-05-29T06:50:51.529Z,102058.80
2019-05-29T06:51:50.131Z,102058.91
2019-05-29T06:52:51.652Z,102058.70
2019-05-29T06:53:52.119Z,102059.05
2019-05-29T06:54:52.732Z,102058.81
2019-05-29T06:55:55.118Z,102059.25
2019-05-29T06:56:52.896Z,102058.97
2019-05-29T06:57:54.604Z,102059.27
2019-05-29T06:58:54.941Z,102059.52
2019-05-29T06:59:55.307Z,102059.71
2019-05-29T07:00:55.905Z,102059.81
2019-05-29T07:01:56.261Z,102060.22
2019-05-29T07:02:56.657Z,102060.40
2019-05-29T07:04:11.289Z,102060.44
2019-05-29T07:04:56.301Z,102060.60
2019-05-29T07:05:57.943Z,102060.30
2019-05-29T07:06:58.407Z,102060.47
2019-05-29T07:07:58.528Z,102060.87
2019-05-29T07:08:57.633Z,102061.72
2019-05-29T07:09:59.062Z,102062.23
2019-05-29T07:10:59.497Z,102062.84
2019-05-29T07:11:59.923Z,102063.02
2019-05-29T07:13:00.340Z,102063.71
2019-05-29T07:14:00.937Z,102064.67
2019-05-29T07:15:01.569Z,102065.20
2019-05-29T07:16:01.935Z,102066.48
2019-05-29T07:17:02.330Z,102067.58
2019-05-29T07:18:03.110Z,102068.86
2019-05-29T07:19:26.491Z,102069.73
2019-05-29T07:20:04.226Z,102070.81
2019-05-29T07:21:03.796Z,102071.84
2019-05-29T07:22:05.165Z,102073.44
2019-05-29T07:23:05.547Z,102074.26
2019-05-29T07:24:05.962Z,102075.19
2019-05-29T07:25:06.508Z,102076.65
2019-05-29T07:26:07.410Z,102077.48
2019-05-29T07:27:12.717Z,102078.23
2019-05-29T07:28:07.610Z,102078.94
2019-05-29T07:29:09.135Z,102079.65
2019-05-29T07:30:09.617Z,102081.11
2019-05-29T07:31:10.134Z,102082.05
2019-05-29T07:32:10.597Z,102082.97
2019-05-29T07:33:11.098Z,102083.91
2019-05-29T07:34:10.547Z,102085.10
2019-05-29T07:35:12.063Z,102086.22
2019-05-29T07:36:12.420Z,102087.52
2019-05-29T07:37:13.142Z,102088.63
2019-05-29T07:38:12.356Z,102089.67
2019-05-29T07:39:12.607Z,102090.84
2019-05-29T07:40:13.953Z,102091.53
2019-05-29T07:40:23.120Z,102113.25
2019-05-29T07:41:24.563Z,102101.72
2019-05-29T07:42:25.075Z,102101.89
2019-05-29T07:43:24.740Z,102102.50
2019-05-29T07:44:26.328Z,102102.35
2019-05-29T07:45:26.758Z,102102.94
2019-05-29T07:46:27.215Z,102104.22
2019-05-29T07:47:27.877Z,102104.16
2019-05-29T07:48:28.459Z,102104.51
2019-05-29T07:49:38.490Z,102104.77
2019-05-29T07:50:28.204Z,102105.44
2019-05-29T07:51:29.743Z,102106.18
2019-05-29T07:52:30.418Z,102106.16
2019-05-29T07:53:29.956Z,102106.95
2019-05-29T07:54:31.550Z,102107.20
2019-05-29T07:55:31.998Z,102107.35
2019-05-29T07:56:32.356Z,102107.38
2019-05-29T07:57:32.940Z,102107.18
2019-05-29T07:58:33.291Z,102107.58
2019-05-29T07:59:34.048Z,102107.65
2019-05-29T08:00:36.156Z,102107.82
2019-05-29T08:01:33.964Z,102107.78
2019-05-29T08:02:35.403Z,102108.24
2019-05-29T08:03:35.843Z,102108.56
2019-05-29T08:04:36.258Z,102108.88
2019-05-29T08:05:36.693Z,102109.25
2019-05-29T08:06:37.182Z,102109.67
2019-05-29T08:07:39.272Z,102109.66
2019-05-29T08:08:37.617Z,102109.88
2019-05-29T08:09:39.569Z,102109.56
2019-05-29T08:10:41.674Z,102109.77
2019-05-29T08:11:39.840Z,102109.97
2019-05-29T08:12:46.377Z,102110.20
2019-05-29T08:13:41.495Z,102110.67
2019-05-29T08:14:41.832Z,102110.88
2019-05-29T08:15:55.038Z,102111.02
2019-05-29T08:16:42.196Z,102111.36
2019-05-29T08:17:44.122Z,102111.78
2019-05-29T08:18:46.227Z,102112.19
2019-05-29T08:19:59.228Z,102112.02
2019-05-29T08:20:44.365Z,102112.26
2019-05-29T08:21:46.503Z,102113.22
2019-05-29T08:22:46.415Z,102113.47
2019-05-29T08:23:46.424Z,102113.28
2019-05-29T08:24:47.452Z,102113.83
2019-05-29T08:25:47.651Z,102114.35
2019-05-29T08:26:47.046Z,102114.69
2019-05-29T08:27:48.924Z,102115.34
2019-05-29T08:28:48.955Z,102115.81
2019-05-29T08:29:48.939Z,102115.64
2019-05-29T08:30:55.763Z,102116.68
2019-05-29T08:31:51.015Z,102116.84
2019-05-29T08:32:51.261Z,102117.16
2019-05-29T08:33:51.415Z,102117.30
2019-05-29T08:34:51.534Z,102117.56
2019-05-29T08:35:59.814Z,102117.98
2019-05-29T08:37:05.990Z,102118.32
2019-05-29T08:37:53.596Z,102118.39
2019-05-29T08:38:54.948Z,102118.33
2019-05-29T08:39:55.291Z,102118.28
2019-05-29T08:40:55.633Z,102118.00
2019-05-29T08:42:21.348Z,102118.04
2019-05-29T08:42:55.339Z,102118.83
2019-05-29T08:43:56.706Z,102118.97
2019-05-29T08:44:57.115Z,102118.77
2019-05-29T08:45:05.770Z,102127.77
2019-05-29T08:46:07.238Z,102127.59
2019-05-29T08:47:10.472Z,102127.63
2019-05-29T08:48:06.902Z,102127.84
2019-05-29T08:49:08.341Z,102127.58
2019-05-29T08:50:18.160Z,102127.61
2019-05-29T08:51:08.336Z,102128.17
2019-05-29T08:52:12.287Z,102128.31
2019-05-29T08:53:09.030Z,102128.08
2019-05-29T08:54:23.564Z,102127.86
2019-05-29T08:55:09.984Z,102128.32
2019-05-29T08:56:11.559Z,102128.58
2019-05-29T08:57:11.930Z,102129.22
2019-05-29T08:58:12.243Z,102129.45
2019-05-29T08:59:12.604Z,102129.84
2019-05-29T09:00:13.017Z,102129.90
2019-05-29T09:01:12.000Z,102129.98
2019-05-29T09:02:13.588Z,102130.42
2019-05-29T09:03:14.123Z,102130.16
2019-05-29T09:04:14.696Z,102130.78
2019-05-29T09:05:15.304Z,102130.56
2019-05-29T09:06:15.825Z,102130.94
2019-05-29T09:07:16.214Z,102131.40
2019-05-29T09:08:16.591Z,102131.55
2019-05-29T09:09:17.338Z,102132.20
2019-05-29T09:10:16.812Z,102132.11
2019-05-29T09:11:18.456Z,102133.03
2019-05-29T09:12:19.301Z,102133.05
2019-05-29T09:13:18.638Z,102133.72
2019-05-29T09:14:20.411Z,102134.05
2019-05-29T09:15:21.860Z,102134.76
2019-05-29T09:16:20.509Z,102135.47
2019-05-29T09:17:22.408Z,102135.84
2019-05-29T09:18:25.592Z,102136.57
2019-05-29T09:19:22.844Z,102136.68
2019-05-29T09:20:43.233Z,102137.30
2019-05-29T09:21:26.380Z,102137.86
2019-05-29T09:22:23.388Z,102138.70
2019-05-29T09:23:24.551Z,102139.02
2019-05-29T09:24:25.067Z,102138.47
2019-05-29T09:25:24.426Z,102138.84
2019-05-29T09:26:26.132Z,102139.50
2019-05-29T09:27:28.301Z,102139.57
2019-05-29T09:28:26.536Z,102139.88
2019-05-29T09:29:27.944Z,102140.53
2019-05-29T09:30:27.452Z,102140.85
2019-05-29T09:31:29.190Z,102141.36
2019-05-29T09:32:48.446Z,102141.78
2019-05-29T09:33:29.775Z,102141.83
2019-05-29T09:34:31.688Z,102141.80
2019-05-29T09:35:32.155Z,102141.87
2019-05-29T09:36:32.858Z,102142.03
2019-05-29T09:37:33.693Z,102142.67
2019-05-29T09:38:33.139Z,102143.20
2019-05-29T09:39:34.666Z,102143.17
2019-05-29T09:40:35.088Z,102143.80
2019-05-29T09:41:35.775Z,102144.63
2019-05-29T09:42:36.318Z,102145.05
2019-05-29T09:42:44.892Z,102146.97
2019-05-29T09:43:58.258Z,102146.89
2019-05-29T09:44:45.712Z,102147.34
2019-05-29T09:45:47.233Z,102147.92
2019-05-29T09:46:47.767Z,102148.50
2019-05-29T09:47:48.292Z,102148.37
2019-05-29T09:48:50.237Z,102148.53
2019-05-29T09:49:48.279Z,102149.02
2019-05-29T09:50:50.831Z,102149.22
2019-05-29T09:51:49.336Z,102149.25
2019-05-29T09:52:50.818Z,102149.06
2019-05-29T09:53:52.472Z,102149.52
2019-05-29T09:54:52.975Z,102149.91
2019-05-29T09:55:52.276Z,102150.00
2019-05-29T09:56:52.247Z,102150.17
2019-05-29T09:57:54.155Z,102150.72
2019-05-29T09:58:55.289Z,102150.94
2019-05-29T09:59:54.451Z,102150.82
2019-05-29T10:01:15.923Z,102151.05
2019-05-29T10:01:56.207Z,102151.07
2019-05-29T10:02:55.626Z,102151.51
2019-05-29T10:03:57.166Z,102151.84
2019-05-29T10:04:56.494Z,102152.52
2019-05-29T10:05:55.957Z,102152.89
2019-05-29T10:06:57.496Z,102153.13
2019-05-29T10:07:58.066Z,102153.59
2019-05-29T10:08:58.047Z,102154.33
2019-05-29T10:09:59.288Z,102154.63
2019-05-29T10:11:05.902Z,102155.11
2019-05-29T10:12:03.454Z,102154.88
2019-05-29T10:13:00.028Z,102154.88
2019-05-29T10:14:00.607Z,102154.56
2019-05-29T10:15:02.246Z,102154.50
2019-05-29T10:16:02.902Z,102155.09
2019-05-29T10:17:08.168Z,102155.44
2019-05-29T10:18:07.407Z,102155.33
2019-05-29T10:19:04.979Z,102155.92
2019-05-29T10:20:05.093Z,102156.53
2019-05-29T10:21:05.212Z,102156.48
2019-05-29T10:22:06.759Z,102156.97
2019-05-29T10:23:07.429Z,102156.99
2019-05-29T10:24:07.887Z,102156.84
2019-05-29T10:25:08.349Z,102156.91
2019-05-29T10:26:09.237Z,102156.81
2019-05-29T10:27:12.931Z,102157.02
2019-05-29T10:29:38.677Z,102161.61
2019-05-29T10:30:42.065Z,102161.47
2019-05-29T10:31:02.109Z,102162.37
2019-05-29T10:31:39.473Z,102160.77
2019-05-29T10:32:42.553Z,102160.61
2019-05-29T10:33:40.245Z,102159.97
2019-05-29T10:34:42.231Z,102159.22
2019-05-29T10:35:42.466Z,102159.06
2019-05-29T10:36:42.303Z,102158.80
2019-05-29T10:37:42.753Z,102158.48
2019-05-29T10:39:13.500Z,102154.20
2019-05-29T10:40:15.039Z,102154.20
2019-05-29T10:41:15.634Z,102154.38
2019-05-29T10:43:33.838Z,102162.08
2019-05-29T10:44:23.823Z,102161.34
2019-05-29T10:45:25.206Z,102161.33
2019-05-29T10:46:25.415Z,102160.84
2019-05-29T10:47:25.935Z,102160.48
2019-05-29T10:48:26.367Z,102160.02
2019-05-29T10:49:26.849Z,102159.27
2019-05-29T10:50:26.256Z,102158.89
2019-05-29T10:51:27.763Z,102158.52
2019-05-29T10:52:28.210Z,102158.34
2019-05-29T10:53:27.941Z,102158.04
2019-05-29T10:54:29.502Z,102157.72
2019-05-29T10:55:29.953Z,102157.31
2019-05-29T10:56:30.684Z,102156.68
2019-05-29T10:57:31.365Z,102156.73
2019-05-29T10:58:48.075Z,102156.51
2019-05-29T10:59:31.956Z,102156.06
2019-05-29T11:00:33.365Z,102155.65
2019-05-29T11:01:33.886Z,102155.49
2019-05-29T11:02:34.328Z,102155.26
2019-05-29T11:03:34.795Z,102155.23
2019-05-29T11:04:35.249Z,102154.90
2019-05-29T11:05:35.889Z,102154.70
2019-05-29T11:06:40.258Z,102154.74
2019-05-29T11:07:35.752Z,102154.34
2019-05-29T11:08:37.191Z,102153.96
2019-05-29T11:09:44.475Z,102153.21
2019-05-29T11:10:37.036Z,102153.46
2019-05-29T11:11:38.504Z,102153.62
2019-05-29T11:12:39.879Z,102153.03
2019-05-29T11:13:38.561Z,102152.86
2019-05-29T11:14:39.984Z,102152.31
2019-05-29T11:15:40.720Z,102152.14
2019-05-29T11:16:41.412Z,102151.94
2019-05-29T11:17:41.985Z,102151.89
2019-05-29T11:18:41.521Z,102151.67
2019-05-29T11:19:43.338Z,102151.23
2019-05-29T11:20:43.750Z,102151.00
2019-05-29T11:21:44.095Z,102150.48
2019-05-29T11:22:44.533Z,102149.92
2019-05-29T11:23:44.888Z,102149.44